sensor_id;sensor_type;location;lat;lon;timestamp;temperature;humidity
2497;DHT22;1259;48.306;14.374;2023-02-22T00:00:50;8.40;99.90
2497;DHT22;1259;48.306;14.374;2023-02-22T00:03:20;8.40;99.90
2497;DHT22;1259;48.306;14.374;2023-02-22T00:05:49;8.40;99.90
2497;DHT22;1259;48.306;14.374;2023-02-22T00:08:18;8.40;99.90
2497;DHT22;1259;48.306;14.374;2023-02-22T00:10:45;8.40;99.90
2497;DHT22;1259;48.306;14.374;2023-02-22T00:13:16;8.40;99.90
2497;DHT22;1259;48.306;14.374;2023-02-22T00:15:43;8.30;99.90
2497;DHT22;1259;48.306;14.374;2023-02-22T00:18:11;8.20;99.90
2497;DHT22;1259;48.306;14.374;2023-02-22T00:20:39;8.20;99.90
2497;DHT22;1259;48.306;14.374;2023-02-22T00:23:07;8.10;99.90
2497;DHT22;1259;48.306;14.374;2023-02-22T00:25:34;8.10;99.90
2497;DHT22;1259;48.306;14.374;2023-02-22T00:28:01;8.00;99.90
2497;DHT22;1259;48.306;14.374;2023-02-22T00:30:29;7.90;99.90
2497;DHT22;1259;48.306;14.374;2023-02-22T00:32:58;7.90;99.90
2497;DHT22;1259;48.306;14.374;2023-02-22T00:35:25;7.90;99.90
2497;DHT22;1259;48.306;14.374;2023-02-22T00:37:54;7.90;99.90
2497;DHT22;1259;48.306;14.374;2023-02-22T00:40:21;7.90;99.90
2497;DHT22;1259;48.306;14.374;2023-02-22T00:42:48;7.80;99.90
2497;DHT22;1259;48.306;14.374;2023-02-22T00:45:16;7.80;99.90
2497;DHT22;1259;48.306;14.374;2023-02-22T00:47:43;7.80;99.90
2497;DHT22;1259;48.306;14.374;2023-02-22T00:50:10;7.80;99.90
2497;DHT22;1259;48.306;14.374;2023-02-22T00:52:37;7.80;99.90
2497;DHT22;1259;48.306;14.374;2023-02-22T00:55:06;7.80;99.90
2497;DHT22;1259;48.306;14.374;2023-02-22T00:57:35;7.70;99.90
2497;DHT22;1259;48.306;14.374;2023-02-22T01:00:03;7.70;99.90
2497;DHT22;1259;48.306;14.374;2023-02-22T01:02:36;7.70;99.90
2497;DHT22;1259;48.306;14.374;2023-02-22T01:05:03;7.70;99.90
2497;DHT22;1259;48.306;14.374;2023-02-22T01:07:29;7.60;99.90
2497;DHT22;1259;48.306;14.374;2023-02-22T01:09:56;7.60;99.90
2497;DHT22;1259;48.306;14.374;2023-02-22T01:12:24;7.60;99.90
2497;DHT22;1259;48.306;14.374;2023-02-22T01:14:51;7.50;99.90
2497;DHT22;1259;48.306;14.374;2023-02-22T01:17:21;7.50;99.90
2497;DHT22;1259;48.306;14.374;2023-02-22T01:19:48;7.40;99.90
2497;DHT22;1259;48.306;14.374;2023-02-22T01:22:14;7.40;99.90
2497;DHT22;1259;48.306;14.374;2023-02-22T01:24:41;7.40;99.90
2497;DHT22;1259;48.306;14.374;2023-02-22T01:27:08;7.40;99.90
2497;DHT22;1259;48.306;14.374;2023-02-22T01:29:36;7.40;99.90
2497;DHT22;1259;48.306;14.374;2023-02-22T01:32:04;7.30;99.90
2497;DHT22;1259;48.306;14.374;2023-02-22T01:34:31;7.20;99.90
2497;DHT22;1259;48.306;14.374;2023-02-22T01:36:58;7.20;99.90
2497;DHT22;1259;48.306;14.374;2023-02-22T01:39:25;7.20;99.90
2497;DHT22;1259;48.306;14.374;2023-02-22T01:41:52;7.20;99.90
2497;DHT22;1259;48.306;14.374;2023-02-22T01:44:20;7.20;99.90
2497;DHT22;1259;48.306;14.374;2023-02-22T01:46:48;7.30;99.90
2497;DHT22;1259;48.306;14.374;2023-02-22T01:49:15;7.20;99.90
2497;DHT22;1259;48.306;14.374;2023-02-22T01:51:43;7.20;99.90
2497;DHT22;1259;48.306;14.374;2023-02-22T01:54:11;7.20;99.90
2497;DHT22;1259;48.306;14.374;2023-02-22T01:56:40;7.20;99.90
2497;DHT22;1259;48.306;14.374;2023-02-22T01:59:08;7.20;99.90
2497;DHT22;1259;48.306;14.374;2023-02-22T02:01:35;7.20;99.90
2497;DHT22;1259;48.306;14.374;2023-02-22T02:04:06;7.20;99.90
2497;DHT22;1259;48.306;14.374;2023-02-22T02:06:34;7.10;99.90
2497;DHT22;1259;48.306;14.374;2023-02-22T02:09:02;7.10;99.90
2497;DHT22;1259;48.306;14.374;2023-02-22T02:11:30;7.10;99.90
2497;DHT22;1259;48.306;14.374;2023-02-22T02:13:57;7.10;99.90
2497;DHT22;1259;48.306;14.374;2023-02-22T02:16:25;7.10;99.90
2497;DHT22;1259;48.306;14.374;2023-02-22T02:18:53;7.00;99.90
2497;DHT22;1259;48.306;14.374;2023-02-22T02:24:15;7.00;99.90
2497;DHT22;1259;48.306;14.374;2023-02-22T02:26:50;6.90;99.90
2497;DHT22;1259;48.306;14.374;2023-02-22T02:29:41;6.90;99.90
2497;DHT22;1259;48.306;14.374;2023-02-22T02:34:59;6.80;99.90
2497;DHT22;1259;48.306;14.374;2023-02-22T02:37:31;6.80;99.90
2497;DHT22;1259;48.306;14.374;2023-02-22T02:40:01;6.80;99.90
2497;DHT22;1259;48.306;14.374;2023-02-22T02:42:37;6.80;99.90
2497;DHT22;1259;48.306;14.374;2023-02-22T02:45:05;6.80;99.90
2497;DHT22;1259;48.306;14.374;2023-02-22T02:47:35;6.80;99.90
2497;DHT22;1259;48.306;14.374;2023-02-22T02:50:06;6.80;99.90
2497;DHT22;1259;48.306;14.374;2023-02-22T02:52:34;6.80;99.90
2497;DHT22;1259;48.306;14.374;2023-02-22T02:55:01;6.80;99.90
2497;DHT22;1259;48.306;14.374;2023-02-22T02:57:28;6.80;99.90
2497;DHT22;1259;48.306;14.374;2023-02-22T02:59:55;6.80;99.90
2497;DHT22;1259;48.306;14.374;2023-02-22T03:02:26;6.70;99.90
2497;DHT22;1259;48.306;14.374;2023-02-22T03:05:03;6.70;99.90
2497;DHT22;1259;48.306;14.374;2023-02-22T03:07:37;6.60;99.90
2497;DHT22;1259;48.306;14.374;2023-02-22T03:10:11;6.60;99.90
2497;DHT22;1259;48.306;14.374;2023-02-22T03:12:44;6.60;99.90
2497;DHT22;1259;48.306;14.374;2023-02-22T03:15:18;6.60;99.90
2497;DHT22;1259;48.306;14.374;2023-02-22T03:17:46;6.60;99.90
2497;DHT22;1259;48.306;14.374;2023-02-22T03:20:18;6.60;99.90
2497;DHT22;1259;48.306;14.374;2023-02-22T03:22:49;6.60;99.90
2497;DHT22;1259;48.306;14.374;2023-02-22T03:25:19;6.50;99.90
2497;DHT22;1259;48.306;14.374;2023-02-22T03:27:48;6.50;99.90
2497;DHT22;1259;48.306;14.374;2023-02-22T03:30:18;6.50;99.90
2497;DHT22;1259;48.306;14.374;2023-02-22T03:32:50;6.60;99.90
2497;DHT22;1259;48.306;14.374;2023-02-22T03:35:18;6.60;99.90
2497;DHT22;1259;48.306;14.374;2023-02-22T03:37:47;6.50;99.90
2497;DHT22;1259;48.306;14.374;2023-02-22T03:40:16;6.50;99.90
2497;DHT22;1259;48.306;14.374;2023-02-22T03:42:51;6.50;99.90
2497;DHT22;1259;48.306;14.374;2023-02-22T03:45:20;6.40;99.90
2497;DHT22;1259;48.306;14.374;2023-02-22T03:47:48;6.40;99.90
2497;DHT22;1259;48.306;14.374;2023-02-22T03:50:17;6.40;99.90
2497;DHT22;1259;48.306;14.374;2023-02-22T03:52:45;6.40;99.90
2497;DHT22;1259;48.306;14.374;2023-02-22T03:55:13;6.30;99.90
2497;DHT22;1259;48.306;14.374;2023-02-22T03:57:44;6.40;99.90
2497;DHT22;1259;48.306;14.374;2023-02-22T04:00:12;6.40;99.90
2497;DHT22;1259;48.306;14.374;2023-02-22T04:02:39;6.30;99.90
2497;DHT22;1259;48.306;14.374;2023-02-22T04:05:06;6.30;99.90
2497;DHT22;1259;48.306;14.374;2023-02-22T04:07:33;6.30;99.90
2497;DHT22;1259;48.306;14.374;2023-02-22T04:10:00;6.30;99.90
2497;DHT22;1259;48.306;14.374;2023-02-22T04:12:27;6.30;99.90
2497;DHT22;1259;48.306;14.374;2023-02-22T04:14:55;6.30;99.90
2497;DHT22;1259;48.306;14.374;2023-02-22T04:17:22;6.30;99.90
2497;DHT22;1259;48.306;14.374;2023-02-22T04:19:49;6.30;99.90
2497;DHT22;1259;48.306;14.374;2023-02-22T04:22:15;6.30;99.90
2497;DHT22;1259;48.306;14.374;2023-02-22T04:24:42;6.30;99.90
2497;DHT22;1259;48.306;14.374;2023-02-22T04:27:09;6.30;99.90
2497;DHT22;1259;48.306;14.374;2023-02-22T04:29:36;6.20;99.90
2497;DHT22;1259;48.306;14.374;2023-02-22T04:32:04;6.20;99.90
2497;DHT22;1259;48.306;14.374;2023-02-22T04:34:31;6.20;99.90
2497;DHT22;1259;48.306;14.374;2023-02-22T04:36:58;6.20;99.90
2497;DHT22;1259;48.306;14.374;2023-02-22T04:39:24;6.20;99.90
2497;DHT22;1259;48.306;14.374;2023-02-22T04:41:51;6.20;99.90
2497;DHT22;1259;48.306;14.374;2023-02-22T04:44:18;6.20;99.90
2497;DHT22;1259;48.306;14.374;2023-02-22T04:46:44;6.10;99.90
2497;DHT22;1259;48.306;14.374;2023-02-22T04:49:13;6.10;99.90
2497;DHT22;1259;48.306;14.374;2023-02-22T04:51:39;6.10;99.90
2497;DHT22;1259;48.306;14.374;2023-02-22T04:54:07;6.10;99.90
2497;DHT22;1259;48.306;14.374;2023-02-22T04:56:33;6.10;99.90
2497;DHT22;1259;48.306;14.374;2023-02-22T04:59:00;6.10;99.90
2497;DHT22;1259;48.306;14.374;2023-02-22T05:01:29;6.10;99.90
2497;DHT22;1259;48.306;14.374;2023-02-22T05:03:56;6.10;99.90
2497;DHT22;1259;48.306;14.374;2023-02-22T05:06:24;6.20;99.90
2497;DHT22;1259;48.306;14.374;2023-02-22T05:08:50;6.20;99.90
2497;DHT22;1259;48.306;14.374;2023-02-22T05:11:17;6.20;99.90
2497;DHT22;1259;48.306;14.374;2023-02-22T05:13:44;6.20;99.90
2497;DHT22;1259;48.306;14.374;2023-02-22T05:16:11;6.20;99.90
2497;DHT22;1259;48.306;14.374;2023-02-22T05:18:38;6.10;99.90
2497;DHT22;1259;48.306;14.374;2023-02-22T05:21:04;6.10;99.90
2497;DHT22;1259;48.306;14.374;2023-02-22T05:23:33;6.10;99.90
2497;DHT22;1259;48.306;14.374;2023-02-22T05:26:00;6.10;99.90
2497;DHT22;1259;48.306;14.374;2023-02-22T05:28:26;6.10;99.90
2497;DHT22;1259;48.306;14.374;2023-02-22T05:30:53;6.10;99.90
2497;DHT22;1259;48.306;14.374;2023-02-22T05:33:20;6.00;99.90
2497;DHT22;1259;48.306;14.374;2023-02-22T05:35:46;6.00;99.90
2497;DHT22;1259;48.306;14.374;2023-02-22T05:38:13;6.00;99.90
2497;DHT22;1259;48.306;14.374;2023-02-22T05:40:41;6.00;99.90
2497;DHT22;1259;48.306;14.374;2023-02-22T05:43:08;6.00;99.90
2497;DHT22;1259;48.306;14.374;2023-02-22T05:45:35;6.00;99.90
2497;DHT22;1259;48.306;14.374;2023-02-22T05:48:02;6.00;99.90
2497;DHT22;1259;48.306;14.374;2023-02-22T05:50:28;6.00;99.90
2497;DHT22;1259;48.306;14.374;2023-02-22T05:52:57;6.00;99.90
2497;DHT22;1259;48.306;14.374;2023-02-22T05:55:24;6.00;99.90
2497;DHT22;1259;48.306;14.374;2023-02-22T05:57:52;6.00;99.90
2497;DHT22;1259;48.306;14.374;2023-02-22T06:00:20;6.00;99.90
2497;DHT22;1259;48.306;14.374;2023-02-22T06:02:52;6.10;99.90
2497;DHT22;1259;48.306;14.374;2023-02-22T06:05:18;6.10;99.90
2497;DHT22;1259;48.306;14.374;2023-02-22T06:07:45;6.10;99.90
2497;DHT22;1259;48.306;14.374;2023-02-22T06:10:12;6.10;99.90
2497;DHT22;1259;48.306;14.374;2023-02-22T06:12:38;6.20;99.90
2497;DHT22;1259;48.306;14.374;2023-02-22T06:15:07;6.20;99.90
2497;DHT22;1259;48.306;14.374;2023-02-22T06:17:34;6.20;99.90
2497;DHT22;1259;48.306;14.374;2023-02-22T06:20:01;6.20;99.90
2497;DHT22;1259;48.306;14.374;2023-02-22T06:22:28;6.30;99.90
2497;DHT22;1259;48.306;14.374;2023-02-22T06:24:54;6.40;99.90
2497;DHT22;1259;48.306;14.374;2023-02-22T06:27:21;6.40;99.90
2497;DHT22;1259;48.306;14.374;2023-02-22T06:29:47;6.50;99.90
2497;DHT22;1259;48.306;14.374;2023-02-22T06:32:15;6.50;99.90
2497;DHT22;1259;48.306;14.374;2023-02-22T06:34:42;6.60;99.90
2497;DHT22;1259;48.306;14.374;2023-02-22T06:37:09;6.70;99.90
2497;DHT22;1259;48.306;14.374;2023-02-22T06:39:35;6.70;99.90
2497;DHT22;1259;48.306;14.374;2023-02-22T06:42:02;6.70;99.90
2497;DHT22;1259;48.306;14.374;2023-02-22T06:44:29;6.80;99.90
2497;DHT22;1259;48.306;14.374;2023-02-22T06:46:55;6.80;99.90
2497;DHT22;1259;48.306;14.374;2023-02-22T06:49:25;6.80;99.90
2497;DHT22;1259;48.306;14.374;2023-02-22T06:51:52;6.90;99.90
2497;DHT22;1259;48.306;14.374;2023-02-22T06:54:19;6.90;99.90
2497;DHT22;1259;48.306;14.374;2023-02-22T06:56:46;7.00;99.90
2497;DHT22;1259;48.306;14.374;2023-02-22T06:59:13;7.00;99.90
2497;DHT22;1259;48.306;14.374;2023-02-22T07:01:40;7.00;99.90
2497;DHT22;1259;48.306;14.374;2023-02-22T07:04:07;7.00;99.90
2497;DHT22;1259;48.306;14.374;2023-02-22T07:06:35;7.10;99.90
2497;DHT22;1259;48.306;14.374;2023-02-22T07:09:02;7.10;99.90
2497;DHT22;1259;48.306;14.374;2023-02-22T07:11:28;7.10;99.90
2497;DHT22;1259;48.306;14.374;2023-02-22T07:13:55;7.10;99.90
2497;DHT22;1259;48.306;14.374;2023-02-22T07:16:22;7.20;99.90
2497;DHT22;1259;48.306;14.374;2023-02-22T07:18:48;7.20;99.90
2497;DHT22;1259;48.306;14.374;2023-02-22T07:21:15;7.30;99.90
2497;DHT22;1259;48.306;14.374;2023-02-22T07:23:50;7.30;99.90
2497;DHT22;1259;48.306;14.374;2023-02-22T07:26:17;7.30;99.90
2497;DHT22;1259;48.306;14.374;2023-02-22T07:28:44;7.30;99.90
2497;DHT22;1259;48.306;14.374;2023-02-22T07:31:11;7.30;99.90
2497;DHT22;1259;48.306;14.374;2023-02-22T07:33:37;7.40;99.90
2497;DHT22;1259;48.306;14.374;2023-02-22T07:36:04;7.40;99.90
2497;DHT22;1259;48.306;14.374;2023-02-22T07:38:31;7.40;99.90
2497;DHT22;1259;48.306;14.374;2023-02-22T07:40:59;7.40;99.90
2497;DHT22;1259;48.306;14.374;2023-02-22T07:43:26;7.50;99.90
2497;DHT22;1259;48.306;14.374;2023-02-22T07:45:54;7.40;99.90
2497;DHT22;1259;48.306;14.374;2023-02-22T07:48:22;7.40;99.90
2497;DHT22;1259;48.306;14.374;2023-02-22T07:50:49;7.40;99.90
2497;DHT22;1259;48.306;14.374;2023-02-22T07:53:17;7.40;99.90
2497;DHT22;1259;48.306;14.374;2023-02-22T07:55:44;7.60;99.90
2497;DHT22;1259;48.306;14.374;2023-02-22T07:58:13;7.60;99.90
2497;DHT22;1259;48.306;14.374;2023-02-22T08:00:40;7.60;99.90
2497;DHT22;1259;48.306;14.374;2023-02-22T08:03:09;7.70;99.90
2497;DHT22;1259;48.306;14.374;2023-02-22T08:05:36;7.70;99.90
2497;DHT22;1259;48.306;14.374;2023-02-22T08:08:03;7.80;99.90
2497;DHT22;1259;48.306;14.374;2023-02-22T08:10:30;7.80;99.90
2497;DHT22;1259;48.306;14.374;2023-02-22T08:12:57;7.70;99.90
2497;DHT22;1259;48.306;14.374;2023-02-22T08:15:26;7.70;99.90
2497;DHT22;1259;48.306;14.374;2023-02-22T08:17:55;8.00;99.90
2497;DHT22;1259;48.306;14.374;2023-02-22T08:20:21;8.10;99.90
2497;DHT22;1259;48.306;14.374;2023-02-22T08:22:48;8.20;99.90
2497;DHT22;1259;48.306;14.374;2023-02-22T08:25:15;8.50;99.90
2497;DHT22;1259;48.306;14.374;2023-02-22T08:27:42;8.50;99.90
2497;DHT22;1259;48.306;14.374;2023-02-22T08:30:11;8.80;99.90
2497;DHT22;1259;48.306;14.374;2023-02-22T08:32:40;8.80;99.90
2497;DHT22;1259;48.306;14.374;2023-02-22T08:35:06;8.90;99.90
2497;DHT22;1259;48.306;14.374;2023-02-22T08:37:33;9.00;99.90
2497;DHT22;1259;48.306;14.374;2023-02-22T08:40:00;8.80;99.90
2497;DHT22;1259;48.306;14.374;2023-02-22T08:42:27;8.80;99.90
2497;DHT22;1259;48.306;14.374;2023-02-22T08:44:53;8.80;99.90
2497;DHT22;1259;48.306;14.374;2023-02-22T08:47:20;8.80;99.90
2497;DHT22;1259;48.306;14.374;2023-02-22T08:49:48;9.00;99.90
2497;DHT22;1259;48.306;14.374;2023-02-22T08:52:15;9.20;99.90
2497;DHT22;1259;48.306;14.374;2023-02-22T08:54:41;9.40;99.90
2497;DHT22;1259;48.306;14.374;2023-02-22T08:57:10;9.50;99.90
2497;DHT22;1259;48.306;14.374;2023-02-22T08:59:37;9.60;99.90
2497;DHT22;1259;48.306;14.374;2023-02-22T09:02:03;9.80;99.90
2497;DHT22;1259;48.306;14.374;2023-02-22T09:04:30;9.80;99.90
2497;DHT22;1259;48.306;14.374;2023-02-22T09:06:58;9.90;99.90
2497;DHT22;1259;48.306;14.374;2023-02-22T09:09:25;9.90;99.90
2497;DHT22;1259;48.306;14.374;2023-02-22T09:11:51;10.20;99.90
2497;DHT22;1259;48.306;14.374;2023-02-22T09:14:18;10.30;99.90
2497;DHT22;1259;48.306;14.374;2023-02-22T09:16:45;10.30;99.90
2497;DHT22;1259;48.306;14.374;2023-02-22T09:19:11;10.30;99.90
2497;DHT22;1259;48.306;14.374;2023-02-22T09:21:38;10.50;99.90
2497;DHT22;1259;48.306;14.374;2023-02-22T09:24:07;10.50;99.90
2497;DHT22;1259;48.306;14.374;2023-02-22T09:26:34;10.70;99.90
2497;DHT22;1259;48.306;14.374;2023-02-22T09:29:04;10.70;99.90
2497;DHT22;1259;48.306;14.374;2023-02-22T09:31:33;10.90;99.90
2497;DHT22;1259;48.306;14.374;2023-02-22T09:34:01;10.80;99.90
2497;DHT22;1259;48.306;14.374;2023-02-22T09:36:27;10.80;99.90
2497;DHT22;1259;48.306;14.374;2023-02-22T09:38:54;10.90;99.90
2497;DHT22;1259;48.306;14.374;2023-02-22T09:41:25;11.10;99.90
2497;DHT22;1259;48.306;14.374;2023-02-22T09:44:00;11.10;99.90
2497;DHT22;1259;48.306;14.374;2023-02-22T09:46:31;11.20;99.90
2497;DHT22;1259;48.306;14.374;2023-02-22T09:49:01;11.30;99.90
2497;DHT22;1259;48.306;14.374;2023-02-22T09:51:30;11.30;99.90
2497;DHT22;1259;48.306;14.374;2023-02-22T09:54:00;11.50;99.90
2497;DHT22;1259;48.306;14.374;2023-02-22T09:56:29;11.60;99.90
2497;DHT22;1259;48.306;14.374;2023-02-22T09:58:58;11.70;99.90
2497;DHT22;1259;48.306;14.374;2023-02-22T10:01:27;11.70;99.90
2497;DHT22;1259;48.306;14.374;2023-02-22T10:03:56;11.80;99.90
2497;DHT22;1259;48.306;14.374;2023-02-22T10:06:24;12.00;99.90
2497;DHT22;1259;48.306;14.374;2023-02-22T10:08:52;12.10;99.90
2497;DHT22;1259;48.306;14.374;2023-02-22T10:11:35;12.10;99.90
2497;DHT22;1259;48.306;14.374;2023-02-22T10:14:07;12.00;99.90
2497;DHT22;1259;48.306;14.374;2023-02-22T10:16:39;12.30;99.90
2497;DHT22;1259;48.306;14.374;2023-02-22T10:19:14;12.20;99.90
2497;DHT22;1259;48.306;14.374;2023-02-22T10:21:45;12.30;99.90
2497;DHT22;1259;48.306;14.374;2023-02-22T10:24:16;12.20;99.90
2497;DHT22;1259;48.306;14.374;2023-02-22T10:26:48;12.20;99.90
2497;DHT22;1259;48.306;14.374;2023-02-22T10:29:17;12.10;99.90
2497;DHT22;1259;48.306;14.374;2023-02-22T10:31:47;12.30;99.90
2497;DHT22;1259;48.306;14.374;2023-02-22T10:34:18;12.30;99.90
2497;DHT22;1259;48.306;14.374;2023-02-22T10:36:48;12.40;99.90
2497;DHT22;1259;48.306;14.374;2023-02-22T10:39:18;12.40;99.90
2497;DHT22;1259;48.306;14.374;2023-02-22T10:41:47;12.50;99.90
2497;DHT22;1259;48.306;14.374;2023-02-22T10:44:16;12.50;99.90
2497;DHT22;1259;48.306;14.374;2023-02-22T10:46:42;12.60;99.90
2497;DHT22;1259;48.306;14.374;2023-02-22T10:49:10;12.70;99.90
2497;DHT22;1259;48.306;14.374;2023-02-22T10:51:41;12.60;99.90
2497;DHT22;1259;48.306;14.374;2023-02-22T10:54:17;12.10;99.90
2497;DHT22;1259;48.306;14.374;2023-02-22T10:56:45;12.40;99.90
2497;DHT22;1259;48.306;14.374;2023-02-22T10:59:25;12.60;99.90
2497;DHT22;1259;48.306;14.374;2023-02-22T11:01:53;12.30;99.90
2497;DHT22;1259;48.306;14.374;2023-02-22T11:04:20;12.60;99.90
2497;DHT22;1259;48.306;14.374;2023-02-22T11:06:47;12.80;99.90
2497;DHT22;1259;48.306;14.374;2023-02-22T11:09:15;13.00;99.90
2497;DHT22;1259;48.306;14.374;2023-02-22T11:11:43;13.10;99.90
2497;DHT22;1259;48.306;14.374;2023-02-22T11:14:10;13.10;99.90
2497;DHT22;1259;48.306;14.374;2023-02-22T11:16:39;13.00;99.90
2497;DHT22;1259;48.306;14.374;2023-02-22T11:19:11;13.00;99.90
2497;DHT22;1259;48.306;14.374;2023-02-22T11:21:41;13.00;99.90
2497;DHT22;1259;48.306;14.374;2023-02-22T11:24:09;12.90;99.90
2497;DHT22;1259;48.306;14.374;2023-02-22T11:26:38;12.90;99.90
2497;DHT22;1259;48.306;14.374;2023-02-22T11:29:09;12.80;99.90
2497;DHT22;1259;48.306;14.374;2023-02-22T11:31:41;12.60;99.90
2497;DHT22;1259;48.306;14.374;2023-02-22T11:34:23;12.70;99.90
2497;DHT22;1259;48.306;14.374;2023-02-22T11:36:50;12.90;99.90
2497;DHT22;1259;48.306;14.374;2023-02-22T11:39:20;13.10;99.90
2497;DHT22;1259;48.306;14.374;2023-02-22T11:41:48;13.10;99.90
2497;DHT22;1259;48.306;14.374;2023-02-22T11:44:20;13.20;99.90
2497;DHT22;1259;48.306;14.374;2023-02-22T11:46:49;13.20;99.90
2497;DHT22;1259;48.306;14.374;2023-02-22T11:49:20;13.20;99.90
2497;DHT22;1259;48.306;14.374;2023-02-22T11:51:52;13.20;99.90
2497;DHT22;1259;48.306;14.374;2023-02-22T11:54:24;13.30;99.90
2497;DHT22;1259;48.306;14.374;2023-02-22T11:56:58;13.40;99.90
2497;DHT22;1259;48.306;14.374;2023-02-22T11:59:33;13.30;99.90
2497;DHT22;1259;48.306;14.374;2023-02-22T12:02:12;13.10;99.90
2497;DHT22;1259;48.306;14.374;2023-02-22T12:04:49;12.90;99.90
2497;DHT22;1259;48.306;14.374;2023-02-22T12:10:05;13.40;99.90
2497;DHT22;1259;48.306;14.374;2023-02-22T12:12:40;13.70;99.90
2497;DHT22;1259;48.306;14.374;2023-02-22T12:15:12;13.70;99.90
2497;DHT22;1259;48.306;14.374;2023-02-22T12:17:45;13.60;99.90
2497;DHT22;1259;48.306;14.374;2023-02-22T12:20:17;13.70;99.90
2497;DHT22;1259;48.306;14.374;2023-02-22T12:22:53;13.70;99.90
2497;DHT22;1259;48.306;14.374;2023-02-22T12:25:22;13.80;99.90
2497;DHT22;1259;48.306;14.374;2023-02-22T12:27:50;13.80;99.90
2497;DHT22;1259;48.306;14.374;2023-02-22T12:30:19;13.90;99.90
2497;DHT22;1259;48.306;14.374;2023-02-22T12:32:50;13.70;99.90
2497;DHT22;1259;48.306;14.374;2023-02-22T12:35:19;13.80;99.90
2497;DHT22;1259;48.306;14.374;2023-02-22T12:37:49;13.80;99.90
2497;DHT22;1259;48.306;14.374;2023-02-22T12:40:19;13.80;99.90
2497;DHT22;1259;48.306;14.374;2023-02-22T12:42:49;13.80;99.90
2497;DHT22;1259;48.306;14.374;2023-02-22T12:45:21;13.70;99.90
2497;DHT22;1259;48.306;14.374;2023-02-22T12:47:54;13.50;99.90
2497;DHT22;1259;48.306;14.374;2023-02-22T12:50:23;13.70;99.90
2497;DHT22;1259;48.306;14.374;2023-02-22T12:52:54;13.90;99.90
2497;DHT22;1259;48.306;14.374;2023-02-22T12:55:23;14.00;99.90
2497;DHT22;1259;48.306;14.374;2023-02-22T12:57:52;13.90;99.90
2497;DHT22;1259;48.306;14.374;2023-02-22T13:00:22;13.90;99.90
2497;DHT22;1259;48.306;14.374;2023-02-22T13:02:56;14.00;99.90
2497;DHT22;1259;48.306;14.374;2023-02-22T13:05:23;14.00;99.90
2497;DHT22;1259;48.306;14.374;2023-02-22T13:07:55;14.10;99.90
2497;DHT22;1259;48.306;14.374;2023-02-22T13:10:30;14.10;99.90
2497;DHT22;1259;48.306;14.374;2023-02-22T13:13:00;14.10;99.90
2497;DHT22;1259;48.306;14.374;2023-02-22T13:15:31;14.10;99.90
2497;DHT22;1259;48.306;14.374;2023-02-22T13:18:07;14.10;99.90
2497;DHT22;1259;48.306;14.374;2023-02-22T13:20:36;14.00;99.90
2497;DHT22;1259;48.306;14.374;2023-02-22T13:23:06;14.10;99.90
2497;DHT22;1259;48.306;14.374;2023-02-22T13:25:37;14.10;99.90
2497;DHT22;1259;48.306;14.374;2023-02-22T13:28:09;14.00;99.90
2497;DHT22;1259;48.306;14.374;2023-02-22T13:30:42;13.80;99.90
2497;DHT22;1259;48.306;14.374;2023-02-22T13:33:15;13.90;99.90
2497;DHT22;1259;48.306;14.374;2023-02-22T13:35:51;14.00;99.90
2497;DHT22;1259;48.306;14.374;2023-02-22T13:38:22;14.10;99.90
2497;DHT22;1259;48.306;14.374;2023-02-22T13:41:11;14.10;99.90
2497;DHT22;1259;48.306;14.374;2023-02-22T13:43:45;14.10;99.90
2497;DHT22;1259;48.306;14.374;2023-02-22T13:46:25;14.10;99.90
2497;DHT22;1259;48.306;14.374;2023-02-22T13:49:06;14.10;99.90
2497;DHT22;1259;48.306;14.374;2023-02-22T13:51:39;14.10;99.90
2497;DHT22;1259;48.306;14.374;2023-02-22T13:54:11;14.10;99.90
2497;DHT22;1259;48.306;14.374;2023-02-22T13:56:40;14.10;99.90
2497;DHT22;1259;48.306;14.374;2023-02-22T13:59:19;14.10;99.90
2497;DHT22;1259;48.306;14.374;2023-02-22T14:01:48;14.10;99.90
2497;DHT22;1259;48.306;14.374;2023-02-22T14:04:19;14.10;99.90
2497;DHT22;1259;48.306;14.374;2023-02-22T14:06:47;14.10;99.90
2497;DHT22;1259;48.306;14.374;2023-02-22T14:09:14;14.00;99.90
2497;DHT22;1259;48.306;14.374;2023-02-22T14:11:43;14.00;99.90
2497;DHT22;1259;48.306;14.374;2023-02-22T14:14:12;14.00;99.90
2497;DHT22;1259;48.306;14.374;2023-02-22T14:16:39;13.90;99.90
2497;DHT22;1259;48.306;14.374;2023-02-22T14:19:12;14.00;99.90
2497;DHT22;1259;48.306;14.374;2023-02-22T14:21:54;13.90;99.90
2497;DHT22;1259;48.306;14.374;2023-02-22T14:24:21;13.90;99.90
2497;DHT22;1259;48.306;14.374;2023-02-22T14:26:53;13.90;99.90
2497;DHT22;1259;48.306;14.374;2023-02-22T14:29:22;13.80;99.90
2497;DHT22;1259;48.306;14.374;2023-02-22T14:31:55;13.80;99.90
2497;DHT22;1259;48.306;14.374;2023-02-22T14:34:30;13.70;99.90
2497;DHT22;1259;48.306;14.374;2023-02-22T14:37:07;13.70;99.90
2497;DHT22;1259;48.306;14.374;2023-02-22T14:39:34;13.70;99.90
2497;DHT22;1259;48.306;14.374;2023-02-22T14:42:04;13.70;99.90
2497;DHT22;1259;48.306;14.374;2023-02-22T14:44:32;13.60;99.90
2497;DHT22;1259;48.306;14.374;2023-02-22T14:47:02;13.50;99.90
2497;DHT22;1259;48.306;14.374;2023-02-22T14:49:30;13.50;99.90
2497;DHT22;1259;48.306;14.374;2023-02-22T14:52:01;13.40;99.90
2497;DHT22;1259;48.306;14.374;2023-02-22T14:54:33;13.30;99.90
2497;DHT22;1259;48.306;14.374;2023-02-22T14:57:03;13.30;99.90
2497;DHT22;1259;48.306;14.374;2023-02-22T14:59:53;13.20;99.90
2497;DHT22;1259;48.306;14.374;2023-02-22T15:02:22;13.20;99.90
2497;DHT22;1259;48.306;14.374;2023-02-22T15:04:51;13.10;99.90
2497;DHT22;1259;48.306;14.374;2023-02-22T15:07:19;13.10;99.90
2497;DHT22;1259;48.306;14.374;2023-02-22T15:09:47;13.00;99.90
2497;DHT22;1259;48.306;14.374;2023-02-22T15:12:20;13.10;99.90
2497;DHT22;1259;48.306;14.374;2023-02-22T15:14:48;13.00;99.90
2497;DHT22;1259;48.306;14.374;2023-02-22T15:17:16;13.00;99.90
2497;DHT22;1259;48.306;14.374;2023-02-22T15:19:44;12.90;99.90
2497;DHT22;1259;48.306;14.374;2023-02-22T15:22:17;13.00;99.90
2497;DHT22;1259;48.306;14.374;2023-02-22T15:24:45;13.00;99.90
2497;DHT22;1259;48.306;14.374;2023-02-22T15:27:21;12.90;99.90
2497;DHT22;1259;48.306;14.374;2023-02-22T15:29:47;12.80;99.90
2497;DHT22;1259;48.306;14.374;2023-02-22T15:32:17;12.80;99.90
2497;DHT22;1259;48.306;14.374;2023-02-22T15:34:44;12.80;99.90
2497;DHT22;1259;48.306;14.374;2023-02-22T15:37:17;12.70;99.90
2497;DHT22;1259;48.306;14.374;2023-02-22T15:39:47;12.70;99.90
2497;DHT22;1259;48.306;14.374;2023-02-22T15:42:14;12.70;99.90
2497;DHT22;1259;48.306;14.374;2023-02-22T15:44:46;12.70;99.90
2497;DHT22;1259;48.306;14.374;2023-02-22T15:47:15;12.60;99.90
2497;DHT22;1259;48.306;14.374;2023-02-22T15:49:42;12.50;99.90
2497;DHT22;1259;48.306;14.374;2023-02-22T15:52:14;12.50;99.90
2497;DHT22;1259;48.306;14.374;2023-02-22T15:54:45;12.30;99.90
2497;DHT22;1259;48.306;14.374;2023-02-22T15:57:12;12.40;99.90
2497;DHT22;1259;48.306;14.374;2023-02-22T15:59:41;12.30;99.90
2497;DHT22;1259;48.306;14.374;2023-02-22T16:02:19;12.30;99.90
2497;DHT22;1259;48.306;14.374;2023-02-22T16:04:48;12.30;99.90
2497;DHT22;1259;48.306;14.374;2023-02-22T16:07:22;12.20;99.90
2497;DHT22;1259;48.306;14.374;2023-02-22T16:09:49;12.20;99.90
2497;DHT22;1259;48.306;14.374;2023-02-22T16:12:22;12.20;99.90
2497;DHT22;1259;48.306;14.374;2023-02-22T16:14:49;12.20;99.90